sensor_id;sensor_type;location;lat;lon;timestamp;P1;durP1;ratioP1;P2;durP2;ratioP2
81336;SDS011;70799;48.000;10.584;2023-12-14T00:04:56;3.03;;;1.13;;
81336;SDS011;70799;48.000;10.584;2023-12-14T00:07:36;4.00;;;1.23;;
81336;SDS011;70799;48.000;10.584;2023-12-14T00:10:12;2.72;;;0.70;;
81336;SDS011;70799;48.000;10.584;2023-12-14T00:12:50;4.10;;;1.17;;
81336;SDS011;70799;48.000;10.584;2023-12-14T00:15:27;2.03;;;0.98;;
81336;SDS011;70799;48.000;10.584;2023-12-14T00:18:03;2.90;;;1.10;;
81336;SDS011;70799;48.000;10.584;2023-12-14T00:20:39;3.00;;;1.20;;
81336;SDS011;70799;48.000;10.584;2023-12-14T00:23:15;2.58;;;1.10;;
81336;SDS011;70799;48.000;10.584;2023-12-14T00:25:51;2.20;;;1.10;;
81336;SDS011;70799;48.000;10.584;2023-12-14T00:28:28;1.98;;;0.93;;
81336;SDS011;70799;48.000;10.584;2023-12-14T00:31:05;2.75;;;1.20;;
81336;SDS011;70799;48.000;10.584;2023-12-14T00:36:18;2.88;;;1.20;;
81336;SDS011;70799;48.000;10.584;2023-12-14T00:38:55;4.03;;;1.40;;
81336;SDS011;70799;48.000;10.584;2023-12-14T00:41:33;3.65;;;1.15;;
81336;SDS011;70799;48.000;10.584;2023-12-14T00:44:09;4.00;;;1.27;;
81336;SDS011;70799;48.000;10.584;2023-12-14T00:49:21;2.75;;;1.20;;
81336;SDS011;70799;48.000;10.584;2023-12-14T00:51:57;3.22;;;1.20;;
81336;SDS011;70799;48.000;10.584;2023-12-14T00:54:33;3.30;;;1.20;;
81336;SDS011;70799;48.000;10.584;2023-12-14T00:57:09;3.38;;;1.42;;
81336;SDS011;70799;48.000;10.584;2023-12-14T00:59:45;3.00;;;1.20;;
81336;SDS011;70799;48.000;10.584;2023-12-14T01:02:21;3.17;;;1.27;;
81336;SDS011;70799;48.000;10.584;2023-12-14T01:04:57;3.13;;;1.10;;
81336;SDS011;70799;48.000;10.584;2023-12-14T01:07:40;2.08;;;0.90;;
81336;SDS011;70799;48.000;10.584;2023-12-14T01:12:51;1.40;;;0.57;;
81336;SDS011;70799;48.000;10.584;2023-12-14T01:15:27;1.42;;;0.45;;
81336;SDS011;70799;48.000;10.584;2023-12-14T01:20:40;0.40;;;0.20;;
81336;SDS011;70799;48.000;10.584;2023-12-14T01:23:16;0.40;;;0.10;;
81336;SDS011;70799;48.000;10.584;2023-12-14T01:25:52;0.68;;;0.25;;
81336;SDS011;70799;48.000;10.584;2023-12-14T01:28:33;0.40;;;0.20;;
81336;SDS011;70799;48.000;10.584;2023-12-14T01:33:45;0.50;;;0.10;;
81336;SDS011;70799;48.000;10.584;2023-12-14T01:39:02;1.30;;;0.28;;
81336;SDS011;70799;48.000;10.584;2023-12-14T01:41:38;1.17;;;0.30;;
81336;SDS011;70799;48.000;10.584;2023-12-14T01:44:14;0.85;;;0.35;;
81336;SDS011;70799;48.000;10.584;2023-12-14T01:46:50;0.70;;;0.30;;
81336;SDS011;70799;48.000;10.584;2023-12-14T01:52:02;0.73;;;0.30;;
81336;SDS011;70799;48.000;10.584;2023-12-14T01:54:38;0.43;;;0.10;;
81336;SDS011;70799;48.000;10.584;2023-12-14T01:59:51;0.68;;;0.25;;
81336;SDS011;70799;48.000;10.584;2023-12-14T02:05:03;0.28;;;0.17;;
81336;SDS011;70799;48.000;10.584;2023-12-14T02:07:39;0.80;;;0.25;;
81336;SDS011;70799;48.000;10.584;2023-12-14T02:12:51;0.57;;;0.13;;
81336;SDS011;70799;48.000;10.584;2023-12-14T02:15:27;1.40;;;0.30;;
81336;SDS011;70799;48.000;10.584;2023-12-14T02:18:04;0.85;;;0.30;;
81336;SDS011;70799;48.000;10.584;2023-12-14T02:20:40;0.40;;;0.10;;
81336;SDS011;70799;48.000;10.584;2023-12-14T02:23:16;1.00;;;0.30;;
81336;SDS011;70799;48.000;10.584;2023-12-14T02:25:52;1.23;;;0.30;;
81336;SDS011;70799;48.000;10.584;2023-12-14T02:28:28;1.92;;;0.20;;
81336;SDS011;70799;48.000;10.584;2023-12-14T02:31:04;0.50;;;0.22;;
81336;SDS011;70799;48.000;10.584;2023-12-14T02:33:40;2.25;;;0.20;;
81336;SDS011;70799;48.000;10.584;2023-12-14T02:38:52;1.20;;;0.20;;
81336;SDS011;70799;48.000;10.584;2023-12-14T02:44:05;0.95;;;0.25;;
81336;SDS011;70799;48.000;10.584;2023-12-14T02:49:18;1.35;;;0.20;;
81336;SDS011;70799;48.000;10.584;2023-12-14T02:51:54;0.70;;;0.10;;
81336;SDS011;70799;48.000;10.584;2023-12-14T02:54:30;1.98;;;0.10;;
81336;SDS011;70799;48.000;10.584;2023-12-14T02:57:06;0.20;;;0.20;;
81336;SDS011;70799;48.000;10.584;2023-12-14T02:59:42;0.50;;;0.10;;
81336;SDS011;70799;48.000;10.584;2023-12-14T03:02:18;0.90;;;0.30;;
81336;SDS011;70799;48.000;10.584;2023-12-14T03:07:32;0.75;;;0.20;;
81336;SDS011;70799;48.000;10.584;2023-12-14T03:12:44;1.33;;;0.22;;
81336;SDS011;70799;48.000;10.584;2023-12-14T03:15:20;0.68;;;0.30;;
81336;SDS011;70799;48.000;10.584;2023-12-14T03:17:56;2.15;;;0.20;;
81336;SDS011;70799;48.000;10.584;2023-12-14T03:23:08;1.25;;;0.22;;
81336;SDS011;70799;48.000;10.584;2023-12-14T03:25:44;1.30;;;0.60;;
81336;SDS011;70799;48.000;10.584;2023-12-14T03:28:20;1.50;;;0.60;;
81336;SDS011;70799;48.000;10.584;2023-12-14T03:30:56;1.95;;;0.70;;
81336;SDS011;70799;48.000;10.584;2023-12-14T03:33:33;3.50;;;1.02;;
81336;SDS011;70799;48.000;10.584;2023-12-14T03:38:45;3.47;;;0.93;;
81336;SDS011;70799;48.000;10.584;2023-12-14T03:41:21;4.38;;;1.15;;
81336;SDS011;70799;48.000;10.584;2023-12-14T03:43:57;5.63;;;1.65;;
81336;SDS011;70799;48.000;10.584;2023-12-14T03:46:33;4.70;;;1.90;;
81336;SDS011;70799;48.000;10.584;2023-12-14T03:49:09;4.47;;;1.80;;
81336;SDS011;70799;48.000;10.584;2023-12-14T03:51:45;6.28;;;2.45;;
81336;SDS011;70799;48.000;10.584;2023-12-14T03:54:21;6.63;;;2.70;;
81336;SDS011;70799;48.000;10.584;2023-12-14T03:56:57;7.20;;;2.72;;
81336;SDS011;70799;48.000;10.584;2023-12-14T03:59:34;7.25;;;2.92;;
81336;SDS011;70799;48.000;10.584;2023-12-14T04:02:13;6.18;;;2.45;;
81336;SDS011;70799;48.000;10.584;2023-12-14T04:04:49;7.07;;;2.78;;
81336;SDS011;70799;48.000;10.584;2023-12-14T04:10:01;4.65;;;2.30;;
81336;SDS011;70799;48.000;10.584;2023-12-14T04:12:38;5.88;;;2.53;;
81336;SDS011;70799;48.000;10.584;2023-12-14T04:15:14;6.55;;;2.67;;
81336;SDS011;70799;48.000;10.584;2023-12-14T04:20:26;7.45;;;2.88;;
81336;SDS011;70799;48.000;10.584;2023-12-14T04:23:02;7.00;;;2.75;;
81336;SDS011;70799;48.000;10.584;2023-12-14T04:25:40;5.80;;;2.80;;
81336;SDS011;70799;48.000;10.584;2023-12-14T04:30:52;8.82;;;3.80;;
81336;SDS011;70799;48.000;10.584;2023-12-14T04:36:04;6.55;;;2.92;;
81336;SDS011;70799;48.000;10.584;2023-12-14T04:38:41;6.80;;;2.88;;
81336;SDS011;70799;48.000;10.584;2023-12-14T04:41:18;7.65;;;3.60;;
81336;SDS011;70799;48.000;10.584;2023-12-14T04:43:54;8.80;;;3.38;;
81336;SDS011;70799;48.000;10.584;2023-12-14T04:49:09;7.38;;;3.30;;
81336;SDS011;70799;48.000;10.584;2023-12-14T04:51:45;6.88;;;3.58;;
81336;SDS011;70799;48.000;10.584;2023-12-14T04:54:21;6.63;;;3.10;;
81336;SDS011;70799;48.000;10.584;2023-12-14T04:56:57;6.25;;;2.90;;
81336;SDS011;70799;48.000;10.584;2023-12-14T04:59:33;6.38;;;3.20;;
81336;SDS011;70799;48.000;10.584;2023-12-14T05:04:45;6.35;;;2.97;;
81336;SDS011;70799;48.000;10.584;2023-12-14T05:07:21;6.78;;;2.83;;
81336;SDS011;70799;48.000;10.584;2023-12-14T05:10:02;6.32;;;2.72;;
81336;SDS011;70799;48.000;10.584;2023-12-14T05:12:39;6.28;;;3.03;;
81336;SDS011;70799;48.000;10.584;2023-12-14T05:17:51;6.10;;;3.13;;
81336;SDS011;70799;48.000;10.584;2023-12-14T05:20:27;5.32;;;2.63;;
81336;SDS011;70799;48.000;10.584;2023-12-14T05:25:46;5.30;;;2.20;;
81336;SDS011;70799;48.000;10.584;2023-12-14T05:30:58;6.55;;;1.90;;
81336;SDS011;70799;48.000;10.584;2023-12-14T05:33:38;5.47;;;2.28;;
81336;SDS011;70799;48.000;10.584;2023-12-14T05:36:16;4.53;;;2.35;;
81336;SDS011;70799;48.000;10.584;2023-12-14T05:38:54;5.47;;;2.22;;
81336;SDS011;70799;48.000;10.584;2023-12-14T05:41:30;4.97;;;2.38;;
81336;SDS011;70799;48.000;10.584;2023-12-14T05:44:17;5.13;;;2.53;;
81336;SDS011;70799;48.000;10.584;2023-12-14T05:46:54;4.32;;;2.33;;
81336;SDS011;70799;48.000;10.584;2023-12-14T05:49:33;4.25;;;1.77;;
81336;SDS011;70799;48.000;10.584;2023-12-14T05:52:10;4.43;;;2.17;;
81336;SDS011;70799;48.000;10.584;2023-12-14T05:54:46;6.78;;;2.40;;
81336;SDS011;70799;48.000;10.584;2023-12-14T05:57:24;5.18;;;2.60;;
81336;SDS011;70799;48.000;10.584;2023-12-14T06:00:02;4.40;;;1.83;;
81336;SDS011;70799;48.000;10.584;2023-12-14T06:02:39;4.45;;;1.85;;
81336;SDS011;70799;48.000;10.584;2023-12-14T06:05:17;4.55;;;2.30;;
81336;SDS011;70799;48.000;10.584;2023-12-14T06:10:28;6.43;;;2.60;;
81336;SDS011;70799;48.000;10.584;2023-12-14T06:13:11;5.18;;;2.25;;
81336;SDS011;70799;48.000;10.584;2023-12-14T06:15:47;4.90;;;2.20;;
81336;SDS011;70799;48.000;10.584;2023-12-14T06:18:23;5.13;;;2.45;;
81336;SDS011;70799;48.000;10.584;2023-12-14T06:20:59;5.30;;;2.10;;
81336;SDS011;70799;48.000;10.584;2023-12-14T06:26:11;3.20;;;1.70;;
81336;SDS011;70799;48.000;10.584;2023-12-14T06:28:47;5.60;;;2.28;;
81336;SDS011;70799;48.000;10.584;2023-12-14T06:34:11;4.35;;;1.95;;
81336;SDS011;70799;48.000;10.584;2023-12-14T06:36:48;5.15;;;2.15;;
81336;SDS011;70799;48.000;10.584;2023-12-14T06:39:24;4.40;;;2.00;;
81336;SDS011;70799;48.000;10.584;2023-12-14T06:42:00;4.55;;;2.08;;
81336;SDS011;70799;48.000;10.584;2023-12-14T06:44:37;4.90;;;2.05;;
81336;SDS011;70799;48.000;10.584;2023-12-14T06:47:13;4.20;;;1.95;;
81336;SDS011;70799;48.000;10.584;2023-12-14T06:49:49;4.88;;;2.15;;
81336;SDS011;70799;48.000;10.584;2023-12-14T06:52:30;6.10;;;3.63;;
81336;SDS011;70799;48.000;10.584;2023-12-14T06:55:06;5.22;;;2.20;;
81336;SDS011;70799;48.000;10.584;2023-12-14T06:57:43;4.72;;;2.03;;
81336;SDS011;70799;48.000;10.584;2023-12-14T07:00:19;5.45;;;2.45;;
81336;SDS011;70799;48.000;10.584;2023-12-14T07:03:01;4.93;;;2.60;;
81336;SDS011;70799;48.000;10.584;2023-12-14T07:05:40;5.15;;;2.30;;
81336;SDS011;70799;48.000;10.584;2023-12-14T07:10:52;4.80;;;2.10;;
81336;SDS011;70799;48.000;10.584;2023-12-14T07:16:05;6.32;;;2.80;;
81336;SDS011;70799;48.000;10.584;2023-12-14T07:18:42;5.00;;;2.22;;
81336;SDS011;70799;48.000;10.584;2023-12-14T07:21:19;5.85;;;2.85;;
81336;SDS011;70799;48.000;10.584;2023-12-14T07:24:01;6.45;;;2.45;;
81336;SDS011;70799;48.000;10.584;2023-12-14T07:26:37;5.00;;;2.03;;
81336;SDS011;70799;48.000;10.584;2023-12-14T07:29:13;4.90;;;2.22;;
81336;SDS011;70799;48.000;10.584;2023-12-14T07:34:25;5.50;;;1.98;;
81336;SDS011;70799;48.000;10.584;2023-12-14T07:39:37;4.82;;;2.33;;
81336;SDS011;70799;48.000;10.584;2023-12-14T07:44:52;7.72;;;2.95;;
81336;SDS011;70799;48.000;10.584;2023-12-14T07:47:28;9.50;;;3.70;;
81336;SDS011;70799;48.000;10.584;2023-12-14T07:50:04;7.13;;;3.03;;
81336;SDS011;70799;48.000;10.584;2023-12-14T07:52:40;14.25;;;7.95;;
81336;SDS011;70799;48.000;10.584;2023-12-14T07:57:54;6.72;;;3.65;;
81336;SDS011;70799;48.000;10.584;2023-12-14T08:00:30;8.05;;;3.53;;
81336;SDS011;70799;48.000;10.584;2023-12-14T08:03:06;6.85;;;3.08;;
81336;SDS011;70799;48.000;10.584;2023-12-14T08:05:42;6.90;;;3.30;;
81336;SDS011;70799;48.000;10.584;2023-12-14T08:08:19;6.72;;;2.88;;
81336;SDS011;70799;48.000;10.584;2023-12-14T08:10:57;8.45;;;3.17;;
81336;SDS011;70799;48.000;10.584;2023-12-14T08:13:33;7.90;;;3.58;;
81336;SDS011;70799;48.000;10.584;2023-12-14T08:16:13;8.73;;;4.10;;
81336;SDS011;70799;48.000;10.584;2023-12-14T08:18:49;7.50;;;3.00;;
81336;SDS011;70799;48.000;10.584;2023-12-14T08:24:02;5.90;;;2.40;;
81336;SDS011;70799;48.000;10.584;2023-12-14T08:26:39;5.28;;;2.65;;
81336;SDS011;70799;48.000;10.584;2023-12-14T08:31:51;8.88;;;3.05;;
81336;SDS011;70799;48.000;10.584;2023-12-14T08:34:29;6.22;;;2.70;;
81336;SDS011;70799;48.000;10.584;2023-12-14T08:39:41;4.60;;;2.28;;
81336;SDS011;70799;48.000;10.584;2023-12-14T08:44:55;5.72;;;2.92;;
81336;SDS011;70799;48.000;10.584;2023-12-14T08:47:34;6.13;;;2.40;;
81336;SDS011;70799;48.000;10.584;2023-12-14T08:50:11;5.38;;;2.00;;
81336;SDS011;70799;48.000;10.584;2023-12-14T08:52:47;5.13;;;2.53;;
81336;SDS011;70799;48.000;10.584;2023-12-14T08:55:24;6.88;;;2.50;;
81336;SDS011;70799;48.000;10.584;2023-12-14T08:58:02;5.72;;;2.38;;
81336;SDS011;70799;48.000;10.584;2023-12-14T09:00:38;5.68;;;2.10;;
81336;SDS011;70799;48.000;10.584;2023-12-14T09:03:21;5.68;;;2.38;;
81336;SDS011;70799;48.000;10.584;2023-12-14T09:05:58;5.00;;;2.08;;
81336;SDS011;70799;48.000;10.584;2023-12-14T09:08:37;5.35;;;2.10;;
81336;SDS011;70799;48.000;10.584;2023-12-14T09:13:49;5.03;;;2.00;;
81336;SDS011;70799;48.000;10.584;2023-12-14T09:19:01;4.97;;;2.22;;
81336;SDS011;70799;48.000;10.584;2023-12-14T09:21:38;4.68;;;1.88;;
81336;SDS011;70799;48.000;10.584;2023-12-14T09:24:17;4.45;;;1.83;;
81336;SDS011;70799;48.000;10.584;2023-12-14T09:26:54;5.32;;;1.83;;
81336;SDS011;70799;48.000;10.584;2023-12-14T09:29:30;6.13;;;2.05;;
81336;SDS011;70799;48.000;10.584;2023-12-14T09:34:45;4.85;;;2.10;;
81336;SDS011;70799;48.000;10.584;2023-12-14T09:37:21;6.38;;;2.00;;
81336;SDS011;70799;48.000;10.584;2023-12-14T09:39:57;3.83;;;1.55;;
81336;SDS011;70799;48.000;10.584;2023-12-14T09:42:38;3.88;;;1.25;;
81336;SDS011;70799;48.000;10.584;2023-12-14T09:45:16;3.38;;;1.23;;
81336;SDS011;70799;48.000;10.584;2023-12-14T09:47:53;3.15;;;1.02;;
81336;SDS011;70799;48.000;10.584;2023-12-14T09:50:32;1.88;;;0.60;;
81336;SDS011;70799;48.000;10.584;2023-12-14T09:53:09;3.17;;;1.40;;
81336;SDS011;70799;48.000;10.584;2023-12-14T09:55:45;2.28;;;0.80;;
81336;SDS011;70799;48.000;10.584;2023-12-14T10:00:57;2.83;;;1.10;;
81336;SDS011;70799;48.000;10.584;2023-12-14T10:03:36;2.42;;;0.77;;
81336;SDS011;70799;48.000;10.584;2023-12-14T10:08:55;1.73;;;0.77;;
81336;SDS011;70799;48.000;10.584;2023-12-14T10:11:33;1.38;;;0.50;;
81336;SDS011;70799;48.000;10.584;2023-12-14T10:16:57;1.05;;;0.52;;
81336;SDS011;70799;48.000;10.584;2023-12-14T10:19:35;0.70;;;0.40;;
81336;SDS011;70799;48.000;10.584;2023-12-14T10:22:11;1.67;;;0.50;;
81336;SDS011;70799;48.000;10.584;2023-12-14T10:24:53;1.52;;;0.50;;
81336;SDS011;70799;48.000;10.584;2023-12-14T10:27:30;2.33;;;0.63;;
81336;SDS011;70799;48.000;10.584;2023-12-14T10:30:07;2.58;;;0.60;;
81336;SDS011;70799;48.000;10.584;2023-12-14T10:32:48;1.45;;;0.70;;
81336;SDS011;70799;48.000;10.584;2023-12-14T10:35:25;2.97;;;0.80;;
81336;SDS011;70799;48.000;10.584;2023-12-14T10:40:37;1.70;;;0.60;;
81336;SDS011;70799;48.000;10.584;2023-12-14T10:43:16;1.60;;;0.60;;
81336;SDS011;70799;48.000;10.584;2023-12-14T10:46:20;1.48;;;0.68;;
81336;SDS011;70799;48.000;10.584;2023-12-14T10:51:38;4.20;;;1.20;;
81336;SDS011;70799;48.000;10.584;2023-12-14T10:54:17;2.42;;;0.70;;
81336;SDS011;70799;48.000;10.584;2023-12-14T10:56:54;3.20;;;1.10;;
81336;SDS011;70799;48.000;10.584;2023-12-14T10:59:33;3.47;;;1.15;;
81336;SDS011;70799;48.000;10.584;2023-12-14T11:02:10;2.88;;;1.10;;
81336;SDS011;70799;48.000;10.584;2023-12-14T11:04:57;3.08;;;1.05;;
81336;SDS011;70799;48.000;10.584;2023-12-14T11:10:21;2.97;;;1.20;;
81336;SDS011;70799;48.000;10.584;2023-12-14T11:13:03;5.78;;;2.25;;
81336;SDS011;70799;48.000;10.584;2023-12-14T11:15:48;3.00;;;1.08;;
81336;SDS011;70799;48.000;10.584;2023-12-14T11:18:25;3.65;;;1.35;;
81336;SDS011;70799;48.000;10.584;2023-12-14T11:21:03;3.00;;;1.35;;
81336;SDS011;70799;48.000;10.584;2023-12-14T11:23:43;6.22;;;1.50;;
81336;SDS011;70799;48.000;10.584;2023-12-14T11:26:22;3.88;;;1.63;;
81336;SDS011;70799;48.000;10.584;2023-12-14T11:29:02;3.95;;;1.73;;
81336;SDS011;70799;48.000;10.584;2023-12-14T11:31:41;4.93;;;1.80;;
81336;SDS011;70799;48.000;10.584;2023-12-14T11:34:19;5.68;;;1.98;;
81336;SDS011;70799;48.000;10.584;2023-12-14T11:36:55;5.45;;;1.88;;
81336;SDS011;70799;48.000;10.584;2023-12-14T11:39:33;6.32;;;1.90;;
81336;SDS011;70799;48.000;10.584;2023-12-14T11:42:19;4.15;;;1.80;;
81336;SDS011;70799;48.000;10.584;2023-12-14T11:47:34;4.65;;;1.75;;
81336;SDS011;70799;48.000;10.584;2023-12-14T11:50:10;5.00;;;1.98;;
81336;SDS011;70799;48.000;10.584;2023-12-14T11:52:48;4.10;;;2.03;;
81336;SDS011;70799;48.000;10.584;2023-12-14T11:55:25;4.32;;;1.65;;
81336;SDS011;70799;48.000;10.584;2023-12-14T11:58:02;4.78;;;1.92;;
81336;SDS011;70799;48.000;10.584;2023-12-14T12:00:39;4.57;;;1.92;;
81336;SDS011;70799;48.000;10.584;2023-12-14T12:03:18;4.85;;;2.00;;
81336;SDS011;70799;48.000;10.584;2023-12-14T12:05:55;5.05;;;2.10;;
81336;SDS011;70799;48.000;10.584;2023-12-14T12:08:33;4.05;;;1.73;;
81336;SDS011;70799;48.000;10.584;2023-12-14T12:11:17;3.63;;;1.63;;
81336;SDS011;70799;48.000;10.584;2023-12-14T12:13:55;5.13;;;1.67;;
81336;SDS011;70799;48.000;10.584;2023-12-14T12:16:34;4.88;;;1.67;;
81336;SDS011;70799;48.000;10.584;2023-12-14T12:19:11;6.50;;;2.42;;
81336;SDS011;70799;48.000;10.584;2023-12-14T12:24:23;4.18;;;1.95;;
81336;SDS011;70799;48.000;10.584;2023-12-14T12:27:01;3.80;;;1.90;;
81336;SDS011;70799;48.000;10.584;2023-12-14T12:29:37;3.55;;;1.60;;
81336;SDS011;70799;48.000;10.584;2023-12-14T12:34:49;4.45;;;1.98;;
81336;SDS011;70799;48.000;10.584;2023-12-14T12:40:03;3.63;;;1.77;;
81336;SDS011;70799;48.000;10.584;2023-12-14T12:42:40;6.35;;;2.40;;
81336;SDS011;70799;48.000;10.584;2023-12-14T12:47:54;4.68;;;1.98;;
81336;SDS011;70799;48.000;10.584;2023-12-14T12:50:33;4.72;;;1.85;;
81336;SDS011;70799;48.000;10.584;2023-12-14T12:53:09;6.15;;;2.20;;
81336;SDS011;70799;48.000;10.584;2023-12-14T12:58:22;4.40;;;2.22;;
81336;SDS011;70799;48.000;10.584;2023-12-14T13:01:01;4.97;;;2.58;;
81336;SDS011;70799;48.000;10.584;2023-12-14T13:03:37;4.80;;;2.65;;
81336;SDS011;70799;48.000;10.584;2023-12-14T13:06:14;6.35;;;2.63;;
81336;SDS011;70799;48.000;10.584;2023-12-14T13:08:50;5.40;;;2.10;;
81336;SDS011;70799;48.000;10.584;2023-12-14T13:11:29;4.22;;;2.28;;
81336;SDS011;70799;48.000;10.584;2023-12-14T13:14:08;4.97;;;2.25;;
81336;SDS011;70799;48.000;10.584;2023-12-14T13:16:47;4.82;;;1.70;;
81336;SDS011;70799;48.000;10.584;2023-12-14T13:19:29;4.18;;;1.95;;
81336;SDS011;70799;48.000;10.584;2023-12-14T13:22:06;3.08;;;1.58;;
81336;SDS011;70799;48.000;10.584;2023-12-14T13:24:46;4.53;;;1.65;;
81336;SDS011;70799;48.000;10.584;2023-12-14T13:27:22;4.78;;;2.08;;
81336;SDS011;70799;48.000;10.584;2023-12-14T13:29:58;4.22;;;1.60;;
81336;SDS011;70799;48.000;10.584;2023-12-14T13:32:34;5.20;;;1.88;;
81336;SDS011;70799;48.000;10.584;2023-12-14T13:35:10;5.78;;;2.10;;
81336;SDS011;70799;48.000;10.584;2023-12-14T13:37:47;3.47;;;1.70;;
81336;SDS011;70799;48.000;10.584;2023-12-14T13:40:23;4.10;;;1.65;;
81336;SDS011;70799;48.000;10.584;2023-12-14T13:45:42;3.85;;;1.85;;
81336;SDS011;70799;48.000;10.584;2023-12-14T13:48:29;4.07;;;1.60;;
81336;SDS011;70799;48.000;10.584;2023-12-14T13:51:05;3.60;;;1.67;;
81336;SDS011;70799;48.000;10.584;2023-12-14T13:53:41;3.10;;;1.40;;
81336;SDS011;70799;48.000;10.584;2023-12-14T13:56:17;4.07;;;1.75;;
81336;SDS011;70799;48.000;10.584;2023-12-14T13:58:54;3.70;;;1.75;;
81336;SDS011;70799;48.000;10.584;2023-12-14T14:01:30;5.60;;;1.60;;
81336;SDS011;70799;48.000;10.584;2023-12-14T14:06:41;5.13;;;1.77;;
81336;SDS011;70799;48.000;10.584;2023-12-14T14:09:18;3.78;;;1.60;;
81336;SDS011;70799;48.000;10.584;2023-12-14T14:11:54;4.03;;;1.65;;
81336;SDS011;70799;48.000;10.584;2023-12-14T14:14:33;4.13;;;1.67;;
81336;SDS011;70799;48.000;10.584;2023-12-14T14:19:45;4.18;;;2.08;;
81336;SDS011;70799;48.000;10.584;2023-12-14T14:22:22;6.35;;;2.33;;
81336;SDS011;70799;48.000;10.584;2023-12-14T14:27:34;3.72;;;1.67;;
81336;SDS011;70799;48.000;10.584;2023-12-14T14:30:12;4.40;;;1.90;;
81336;SDS011;70799;48.000;10.584;2023-12-14T14:32:49;4.30;;;2.05;;
81336;SDS011;70799;48.000;10.584;2023-12-14T14:35:25;6.00;;;2.45;;
81336;SDS011;70799;48.000;10.584;2023-12-14T14:38:04;5.40;;;2.13;;
81336;SDS011;70799;48.000;10.584;2023-12-14T14:40:41;2.92;;;1.45;;
81336;SDS011;70799;48.000;10.584;2023-12-14T14:43:17;3.15;;;1.52;;
81336;SDS011;70799;48.000;10.584;2023-12-14T14:45:54;2.55;;;1.10;;
81336;SDS011;70799;48.000;10.584;2023-12-14T14:48:33;1.65;;;0.90;;
81336;SDS011;70799;48.000;10.584;2023-12-14T14:54:12;1.83;;;0.90;;
81336;SDS011;70799;48.000;10.584;2023-12-14T14:56:48;4.47;;;1.00;;
81336;SDS011;70799;48.000;10.584;2023-12-14T15:02:02;2.38;;;0.90;;
81336;SDS011;70799;48.000;10.584;2023-12-14T15:04:38;1.55;;;0.90;;
81336;SDS011;70799;48.000;10.584;2023-12-14T15:07:14;4.13;;;0.85;;
81336;SDS011;70799;48.000;10.584;2023-12-14T15:09:50;2.25;;;0.80;;
81336;SDS011;70799;48.000;10.584;2023-12-14T15:12:26;2.03;;;1.00;;
81336;SDS011;70799;48.000;10.584;2023-12-14T15:17:40;1.20;;;0.60;;
81336;SDS011;70799;48.000;10.584;2023-12-14T15:20:17;2.20;;;0.70;;
81336;SDS011;70799;48.000;10.584;2023-12-14T15:22:53;2.22;;;0.77;;
81336;SDS011;70799;48.000;10.584;2023-12-14T15:25:32;3.63;;;0.90;;
81336;SDS011;70799;48.000;10.584;2023-12-14T15:28:10;4.55;;;0.85;;
81336;SDS011;70799;48.000;10.584;2023-12-14T15:30:47;2.35;;;0.80;;
81336;SDS011;70799;48.000;10.584;2023-12-14T15:33:23;1.35;;;0.80;;
81336;SDS011;70799;48.000;10.584;2023-12-14T15:36:02;2.13;;;0.88;;
81336;SDS011;70799;48.000;10.584;2023-12-14T15:38:38;2.55;;;1.10;;
81336;SDS011;70799;48.000;10.584;2023-12-14T15:41:18;2.45;;;1.00;;
81336;SDS011;70799;48.000;10.584;2023-12-14T15:43:55;5.22;;;2.10;;
81336;SDS011;70799;48.000;10.584;2023-12-14T15:46:33;2.78;;;1.20;;
81336;SDS011;70799;48.000;10.584;2023-12-14T15:49:09;3.28;;;1.00;;
81336;SDS011;70799;48.000;10.584;2023-12-14T15:51:45;2.33;;;1.05;;
81336;SDS011;70799;48.000;10.584;2023-12-14T15:56:57;5.85;;;1.80;;
81336;SDS011;70799;48.000;10.584;2023-12-14T15:59:34;5.75;;;1.80;;
81336;SDS011;70799;48.000;10.584;2023-12-14T16:02:10;7.68;;;2.30;;
81336;SDS011;70799;48.000;10.584;2023-12-14T16:04:46;7.18;;;2.50;;
81336;SDS011;70799;48.000;10.584;2023-12-14T16:09:58;5.90;;;2.50;;
81336;SDS011;70799;48.000;10.584;2023-12-14T16:12:34;3.67;;;1.38;;
81336;SDS011;70799;48.000;10.584;2023-12-14T16:15:11;4.07;;;1.63;;
81336;SDS011;70799;48.000;10.584;2023-12-14T16:17:47;1.90;;;0.90;;
81336;SDS011;70799;48.000;10.584;2023-12-14T16:20:23;3.20;;;1.10;;
81336;SDS011;70799;48.000;10.584;2023-12-14T16:25:37;2.97;;;1.67;;
81336;SDS011;70799;48.000;10.584;2023-12-14T16:28:13;3.08;;;1.40;;
81336;SDS011;70799;48.000;10.584;2023-12-14T16:30:50;4.15;;;1.90;;
81336;SDS011;70799;48.000;10.584;2023-12-14T16:33:26;5.18;;;1.75;;
81336;SDS011;70799;48.000;10.584;2023-12-14T16:36:08;3.53;;;1.55;;
81336;SDS011;70799;48.000;10.584;2023-12-14T16:38:46;4.63;;;1.50;;
81336;SDS011;70799;48.000;10.584;2023-12-14T16:43:58;3.67;;;1.75;;
81336;SDS011;70799;48.000;10.584;2023-12-14T16:46:34;6.40;;;1.88;;
81336;SDS011;70799;48.000;10.584;2023-12-14T16:49:10;5.18;;;2.40;;
81336;SDS011;70799;48.000;10.584;2023-12-14T16:51:46;4.00;;;1.80;;
81336;SDS011;70799;48.000;10.584;2023-12-14T16:54:22;4.30;;;2.10;;
81336;SDS011;70799;48.000;10.584;2023-12-14T16:56:58;4.82;;;2.50;;
81336;SDS011;70799;48.000;10.584;2023-12-14T16:59:34;4.25;;;2.10;;
81336;SDS011;70799;48.000;10.584;2023-12-14T17:02:11;5.97;;;2.72;;
81336;SDS011;70799;48.000;10.584;2023-12-14T17:04:48;4.80;;;2.33;;
81336;SDS011;70799;48.000;10.584;2023-12-14T17:10:02;4.53;;;2.20;;
81336;SDS011;70799;48.000;10.584;2023-12-14T17:12:38;7.38;;;2.28;;
81336;SDS011;70799;48.000;10.584;2023-12-14T17:15:14;6.40;;;3.20;;
81336;SDS011;70799;48.000;10.584;2023-12-14T17:17:50;5.28;;;2.50;;
81336;SDS011;70799;48.000;10.584;2023-12-14T17:20:27;6.40;;;3.22;;
81336;SDS011;70799;48.000;10.584;2023-12-14T17:23:05;6.22;;;2.90;;
81336;SDS011;70799;48.000;10.584;2023-12-14T17:25:42;5.45;;;3.00;;
81336;SDS011;70799;48.000;10.584;2023-12-14T17:28:19;6.95;;;2.67;;
81336;SDS011;70799;48.000;10.584;2023-12-14T17:30:55;6.60;;;2.97;;
81336;SDS011;70799;48.000;10.584;2023-12-14T17:33:32;6.43;;;3.03;;
81336;SDS011;70799;48.000;10.584;2023-12-14T17:36:12;7.30;;;2.97;;
81336;SDS011;70799;48.000;10.584;2023-12-14T17:38:49;7.65;;;3.15;;
81336;SDS011;70799;48.000;10.584;2023-12-14T17:41:26;7.43;;;3.05;;
81336;SDS011;70799;48.000;10.584;2023-12-14T17:44:03;6.93;;;3.42;;
81336;SDS011;70799;48.000;10.584;2023-12-14T17:46:48;8.75;;;3.78;;
81336;SDS011;70799;48.000;10.584;2023-12-14T17:49:25;6.63;;;3.55;;
81336;SDS011;70799;48.000;10.584;2023-12-14T17:52:01;4.53;;;1.92;;
81336;SDS011;70799;48.000;10.584;2023-12-14T17:54:40;6.18;;;2.83;;
81336;SDS011;70799;48.000;10.584;2023-12-14T17:57:17;5.97;;;2.47;;
81336;SDS011;70799;48.000;10.584;2023-12-14T17:59:53;6.00;;;2.10;;
81336;SDS011;70799;48.000;10.584;2023-12-14T18:02:29;5.00;;;2.38;;
81336;SDS011;70799;48.000;10.584;2023-12-14T18:05:12;5.20;;;2.63;;
81336;SDS011;70799;48.000;10.584;2023-12-14T18:07:52;4.90;;;2.50;;
81336;SDS011;70799;48.000;10.584;2023-12-14T18:10:29;5.88;;;3.00;;
81336;SDS011;70799;48.000;10.584;2023-12-14T18:13:10;5.40;;;2.45;;
81336;SDS011;70799;48.000;10.584;2023-12-14T18:15:49;4.45;;;2.15;;
81336;SDS011;70799;48.000;10.584;2023-12-14T18:18:26;5.03;;;2.17;;
81336;SDS011;70799;48.000;10.584;2023-12-14T18:21:03;4.88;;;2.30;;
81336;SDS011;70799;48.000;10.584;2023-12-14T18:23:40;6.05;;;2.90;;
81336;SDS011;70799;48.000;10.584;2023-12-14T18:26:16;6.90;;;2.38;;
81336;SDS011;70799;48.000;10.584;2023-12-14T18:28:53;6.57;;;2.83;;